Time;durP1;ratioP1;P1;durP2;ratioP2;P2;SDS_P1;SDS_P2;PMS_P1;PMS_P2;Temp;Humidity;BMP_temperature;BMP_pressure;BME280_temperature;BME280_humidity;BME280_pressure;Samples;Min_cycle;Max_cycle;Signal;HPM_P1;HPM_P2
2022/08/15 00:00:48;;;;;;;11.30;10.20;;;;;;;22.16;100.00;100602.38;2065614;28;20186;-66
2022/08/15 00:01:49;;;;;;;12.43;10.83;;;;;;;21.79;100.00;100548.19;2065688;28;21005;-66
2022/08/15 00:02:49;;;;;;;13.07;10.90;;;;;;;22.13;100.00;100601.34;2065635;28;20815;-66
2022/08/15 00:03:53;;;;;;;16.60;10.93;;;;;;;22.13;100.00;100600.56;2060036;28;20195;-66
2022/08/15 00:04:53;;;;;;;13.73;9.83;;;;;;;22.11;100.00;100597.47;2065035;28;20574;-66
2022/08/15 00:05:56;;;;;;;14.83;10.30;;;;;;;22.12;100.00;100611.09;2073039;28;20420;-66
2022/08/15 00:06:57;;;;;;;11.33;10.23;;;;;;;21.64;100.00;100528.66;2073840;28;20173;-66
2022/08/15 00:07:58;;;;;;;11.40;10.40;;;;;;;22.12;100.00;100616.72;2073978;28;20417;-66
2022/08/15 00:09:01;;;;;;;14.47;10.77;;;;;;;22.09;100.00;100608.50;2073929;28;20212;-67
2022/08/15 00:10:03;;;;;;;12.53;10.73;;;;;;;22.04;100.00;100609.25;2066426;28;20872;-66
2022/08/15 00:11:11;;;;;;;12.70;10.47;;;;;;;22.01;100.00;100604.66;2072005;28;20429;-66
2022/08/15 00:12:12;;;;;;;12.77;9.23;;;;;;;21.70;100.00;100554.84;2067327;28;20950;-66
2022/08/15 00:13:22;;;;;;;13.70;10.93;;;;;;;21.70;100.00;100554.09;2065679;28;20942;-66
2022/08/15 00:14:26;;;;;;;12.63;11.33;;;;;;;21.67;100.00;100560.72;2065168;28;20182;-66
2022/08/15 00:15:27;;;;;;;17.33;10.47;;;;;;;21.99;100.00;100613.63;2069794;28;20471;-66
2022/08/15 00:16:32;;;;;;;11.57;10.37;;;;;;;21.85;100.00;100594.88;2069319;28;20437;-65
2022/08/15 00:17:34;;;;;;;11.90;10.63;;;;;;;22.01;100.00;100604.66;2065581;28;20212;-67
2022/08/15 00:18:34;;;;;;;13.47;12.07;;;;;;;21.72;100.00;100566.41;2065621;28;20966;-66
2022/08/15 00:19:39;;;;;;;15.93;10.20;;;;;;;22.00;100.00;100612.34;2065557;28;20799;-66
2022/08/15 00:20:40;;;;;;;13.03;10.43;;;;;;;21.96;100.00;100608.25;2065550;28;20166;-66
2022/08/15 00:21:46;;;;;;;16.43;9.77;;;;;;;21.92;100.00;100596.44;2065781;28;20441;-66
2022/08/15 00:22:49;;;;;;;16.40;10.03;;;;;;;21.80;100.00;100589.25;2057025;28;20419;-66
2022/08/15 00:23:50;;;;;;;18.93;9.77;;;;;;;21.87;100.00;100611.28;2056395;28;20434;-66
2022/08/15 00:24:51;;;;;;;16.37;9.70;;;;;;;21.49;100.00;100567.59;2057746;28;20952;-66
2022/08/15 00:25:57;;;;;;;14.10;10.93;;;;;;;21.83;100.00;100620.00;2064755;28;20950;-66
2022/08/15 00:27:01;;;;;;;12.00;9.87;;;;;;;21.83;100.00;100622.84;2065430;28;20576;-66
2022/08/15 00:28:02;;;;;;;12.17;10.13;;;;;;;21.83;100.00;100622.84;2067692;28;20441;-67
2022/08/15 00:29:06;;;;;;;15.97;10.00;;;;;;;21.56;100.00;100580.44;2061273;28;20873;-66
2022/08/15 00:30:08;;;;;;;16.83;10.33;;;;;;;21.75;100.00;100618.22;2051858;28;20808;-66
2022/08/15 00:31:10;;;;;;;15.23;10.60;;;;;;;21.19;100.00;100541.09;2064757;28;20420;-66
2022/08/15 00:32:16;;;;;;;15.33;8.97;;;;;;;21.73;100.00;100618.72;2066382;28;20429;-66
2022/08/15 00:33:17;;;;;;;13.37;10.03;;;;;;;21.45;100.00;100574.75;2072980;28;20431;-66
2022/08/15 00:34:17;;;;;;;24.90;10.97;;;;;;;21.70;100.00;100618.97;2070014;28;20417;-67
2022/08/15 00:35:36;;;;;;;13.97;10.77;;;;;;;21.70;100.00;100610.50;2065144;28;20194;-66
2022/08/15 00:36:36;;;;;;;15.13;10.57;;;;;;;21.68;100.00;100622.28;2072832;28;20169;-67
2022/08/15 00:37:37;;;;;;;13.93;10.77;;;;;;;21.61;100.00;100607.88;2061529;28;20536;-67
2022/08/15 00:38:37;;;;;;;13.73;10.53;;;;;;;21.61;100.00;100614.28;2057443;28;20187;-66
2022/08/15 00:39:39;;;;;;;14.43;12.97;;;;;;;21.47;100.00;100606.03;2054184;28;20199;-66
2022/08/15 00:42:08;;;;;;;13.60;12.30;;;;;;;21.61;100.00;100624.78;2057122;28;20852;-66
2022/08/15 00:43:09;;;;;;;14.23;12.90;;;;;;;21.14;100.00;100541.84;2056553;28;20466;-67
2022/08/15 00:44:21;;;;;;;15.07;10.97;;;;;;;21.64;100.00;100630.19;2048632;28;20557;-66
2022/08/15 00:45:23;;;;;;;12.30;10.27;;;;;;;21.65;100.00;100619.69;2049351;28;20451;-67
2022/08/15 00:46:27;;;;;;;12.33;11.13;;;;;;;21.62;100.00;100627.13;2056812;28;20448;-66
2022/08/15 00:47:29;;;;;;;12.57;10.93;;;;;;;21.58;100.00;100620.94;2060983;28;20433;-66
2022/08/15 00:48:41;;;;;;;14.60;12.30;;;;;;;21.59;100.00;100630.19;2065248;28;20512;-66
2022/08/15 00:49:43;;;;;;;18.23;12.03;;;;;;;21.24;100.00;100593.91;2053382;28;20423;-67
2022/08/15 00:50:43;;;;;;;14.30;11.13;;;;;;;21.57;100.00;100635.53;2051176;28;20415;-67
2022/08/15 00:52:01;;;;;;;13.63;11.27;;;;;;;21.56;100.00;100631.97;2063907;28;21061;-66
2022/08/15 00:53:08;;;;;;;13.03;11.67;;;;;;;21.55;100.00;100638.09;2059644;28;20222;-68
2022/08/15 00:54:38;;;;;;;13.80;11.40;;;;;;;21.50;100.00;100636.78;2063014;28;20925;-66
2022/08/15 00:55:42;;;;;;;18.50;12.40;;;;;;;21.51;100.00;100635.53;2047937;28;20565;-67
2022/08/15 00:57:09;;;;;;;15.93;12.30;;;;;;;21.24;100.00;100593.16;2052483;28;20504;-66
2022/08/15 00:58:10;;;;;;;13.77;12.43;;;;;;;21.00;100.00;100556.91;2057236;28;20446;-67
2022/08/15 00:59:14;;;;;;;13.23;11.83;;;;;;;21.47;100.00;100639.84;2057209;28;20497;-66
2022/08/15 01:00:20;;;;;;;14.90;12.80;;;;;;;21.48;100.00;100635.75;2062497;28;20608;-66
2022/08/15 01:01:22;;;;;;;17.77;14.17;;;;;;;21.46;100.00;100638.31;2051622;28;20439;-66
2022/08/15 01:02:27;;;;;;;13.83;12.43;;;;;;;21.45;100.00;100637.53;2056569;28;20438;-66
2022/08/15 01:03:31;;;;;;;14.97;12.93;;;;;;;21.47;100.00;100643.47;2063968;28;20432;-66
2022/08/15 01:04:33;;;;;;;14.73;13.13;;;;;;;21.49;100.00;100640.91;2051823;28;20518;-66
2022/08/15 01:05:34;;;;;;;16.60;12.47;;;;;;;21.49;100.00;100640.91;2047514;28;20984;-66
2022/08/15 01:06:37;;;;;;;15.30;12.53;;;;;;;21.33;100.00;100615.47;2049024;28;20944;-66
2022/08/15 01:07:38;;;;;;;15.03;12.57;;;;;;;21.24;100.00;100602.34;2056857;28;20171;-67
2022/08/15 01:08:41;;;;;;;14.47;12.90;;;;;;;21.49;100.00;100637.31;2057344;28;20928;-66
2022/08/15 01:09:42;;;;;;;14.57;13.03;;;;;;;20.84;100.00;100542.72;2057260;28;20210;-66
2022/08/15 01:10:43;;;;;;;20.30;13.43;;;;;;;21.48;100.00;100641.41;2057340;28;20492;-66
2022/08/15 01:11:54;;;;;;;14.97;13.47;;;;;;;21.49;100.00;100640.91;2057044;28;20439;-67
2022/08/15 01:12:54;;;;;;;16.40;13.20;;;;;;;20.94;100.00;100556.09;2062624;28;20437;-66
2022/08/15 01:13:59;;;;;;;16.00;13.90;;;;;;;21.47;100.00;100639.84;2065238;28;20935;-66
2022/08/15 01:15:05;;;;;;;14.53;12.70;;;;;;;21.40;100.00;100635.47;2064481;28;20190;-66
2022/08/15 01:16:05;;;;;;;27.77;12.90;;;;;;;21.45;100.00;100637.53;2064189;28;20640;-65
2022/08/15 01:17:07;;;;;;;21.10;12.10;;;;;;;21.45;100.00;100637.53;2065016;28;20432;-66
2022/08/15 01:18:08;;;;;;;15.67;11.53;;;;;;;21.36;100.00;100617.28;2065115;28;20167;-66
2022/08/15 01:19:24;;;;;;;15.27;12.47;;;;;;;21.44;100.00;100629.63;2064968;28;20409;-66
2022/08/15 01:20:30;;;;;;;19.93;12.80;;;;;;;21.42;100.00;100634.97;2063848;28;20163;-66
2022/08/15 01:21:40;;;;;;;24.73;13.97;;;;;;;20.79;100.00;100541.44;2056768;28;20486;-66
2022/08/15 01:23:04;;;;;;;18.97;13.50;;;;;;;21.35;100.00;100636.22;2057435;28;20410;-66
2022/08/15 01:24:33;;;;;;;17.97;14.07;;;;;;;21.29;100.00;100626.97;2057510;28;20457;-66
2022/08/15 01:25:46;;;;;;;16.77;14.13;;;;;;;21.35;100.00;100633.41;2058105;28;20425;-66
2022/08/15 01:26:46;;;;;;;19.63;14.57;;;;;;;21.31;100.00;100627.25;2053608;28;20513;-66
2022/08/15 01:28:13;;;;;;;18.63;16.77;;;;;;;21.28;100.00;100633.13;2049365;28;20956;-66
2022/08/15 01:29:15;;;;;;;18.80;17.07;;;;;;;21.22;100.00;100630.28;2054937;28;20229;-66
2022/08/15 01:30:18;;;;;;;20.53;14.70;;;;;;;21.09;100.00;100601.00;2059723;28;20418;-67
2022/08/15 01:31:21;;;;;;;18.87;15.70;;;;;;;21.28;100.00;100630.31;2065056;28;20429;-66
2022/08/15 01:32:22;;;;;;;17.33;15.53;;;;;;;21.21;100.00;100617.47;2056227;28;20893;-66
2022/08/15 01:33:23;;;;;;;19.73;15.77;;;;;;;21.29;100.00;100632.59;2056618;28;20496;-66
2022/08/15 01:34:24;;;;;;;18.67;16.03;;;;;;;21.26;100.00;100633.63;2062522;28;20178;-65
2022/08/15 01:35:26;;;;;;;18.33;15.63;;;;;;;20.88;100.00;100569.38;2064257;28;20438;-66
2022/08/15 01:36:29;;;;;;;17.80;16.03;;;;;;;21.26;100.00;100633.63;2064019;28;20190;-66
2022/08/15 01:37:31;;;;;;;19.73;16.83;;;;;;;21.25;100.00;100623.66;2067440;28;20616;-66
2022/08/15 01:38:37;;;;;;;19.80;17.77;;;;;;;21.26;100.00;100625.19;2073142;28;20423;-66
2022/08/15 01:39:54;;;;;;;17.80;15.43;;;;;;;21.28;100.00;100628.25;2069091;28;20973;-66
2022/08/15 01:41:13;;;;;;;17.37;15.10;;;;;;;21.30;100.00;100630.56;2064940;28;20428;-66
2022/08/15 01:42:36;;;;;;;19.20;16.67;;;;;;;21.27;100.00;100621.09;2065227;28;20855;-67
2022/08/15 01:43:46;;;;;;;18.83;16.77;;;;;;;21.10;100.00;100600.50;2065205;28;20496;-66
2022/08/15 01:45:06;;;;;;;19.07;17.10;;;;;;;21.26;100.00;100610.31;2065287;28;20420;-66
2022/08/15 01:46:08;;;;;;;18.97;17.00;;;;;;;21.29;100.00;100617.75;2064323;28;20398;-66
2022/08/15 01:47:23;;;;;;;20.60;18.70;;;;;;;21.25;100.00;100611.59;2064798;28;20417;-66
2022/08/15 01:48:49;;;;;;;19.90;16.53;;;;;;;21.17;100.00;100618.97;2056185;28;20449;-66
2022/08/15 01:50:07;;;;;;;19.50;15.97;;;;;;;21.15;100.00;100619.50;2060149;28;21005;-66
2022/08/15 01:51:10;;;;;;;17.30;15.50;;;;;;;21.06;100.00;100614.06;2060460;28;20453;-66
2022/08/15 01:52:11;;;;;;;20.00;17.87;;;;;;;20.62;100.00;100554.63;2056214;28;20521;-66
2022/08/15 01:53:27;;;;;;;20.67;18.47;;;;;;;21.07;100.00;100618.41;2061619;28;20421;-66
2022/08/15 01:54:35;;;;;;;17.37;13.83;;;;;;;21.11;100.00;100618.97;2068296;28;20428;-66
2022/08/15 01:55:55;;;;;;;16.63;14.47;;;;;;;21.14;100.00;100617.19;2063276;28;20481;-66
2022/08/15 01:56:56;;;;;;;19.97;14.77;;;;;;;21.12;100.00;100612.03;2061918;28;20430;-66
2022/08/15 01:57:57;;;;;;;17.93;14.23;;;;;;;20.60;100.00;100540.28;2064702;28;20967;-66
2022/08/15 01:59:01;;;;;;;15.43;13.70;;;;;;;21.11;100.00;100615.34;2067756;28;20849;-66
2022/08/15 02:00:06;;;;;;;19.17;15.10;;;;;;;20.75;100.00;100568.25;2072995;28;20264;-66
2022/08/15 02:01:10;;;;;;;19.50;14.10;;;;;;;21.08;100.00;100617.13;2071297;28;20425;-66
2022/08/15 02:02:11;;;;;;;17.43;14.67;;;;;;;21.11;100.00;100618.97;2064862;28;20957;-66
2022/08/15 02:03:12;;;;;;;17.73;14.17;;;;;;;21.10;100.00;100620.25;2064934;28;20417;-66
2022/08/15 02:04:15;;;;;;;20.60;15.37;;;;;;;21.11;100.00;100618.19;2068639;28;20918;-66
2022/08/15 02:05:15;;;;;;;20.07;15.43;;;;;;;21.11;100.00;100616.13;2072559;28;20204;-66
2022/08/15 02:06:20;;;;;;;23.90;16.00;;;;;;;20.63;100.00;100550.53;2072376;28;20440;-66
2022/08/15 02:07:25;;;;;;;20.27;15.53;;;;;;;21.13;100.00;100615.63;2072585;28;20256;-66
2022/08/15 02:08:26;;;;;;;18.77;15.40;;;;;;;21.06;100.00;100618.91;2067665;28;20872;-66
2022/08/15 02:09:28;;;;;;;17.77;15.93;;;;;;;21.04;100.00;100616.59;2068831;28;20467;-66
2022/08/15 02:10:29;;;;;;;18.97;16.00;;;;;;;20.68;100.00;100572.31;2069679;28;20193;-66
2022/08/15 02:11:30;;;;;;;20.33;15.53;;;;;;;20.68;100.00;100558.25;2066820;28;20453;-66
2022/08/15 02:12:34;;;;;;;22.07;19.97;;;;;;;21.06;100.00;100610.47;2072893;28;20185;-66
2022/08/15 02:13:35;;;;;;;19.83;17.80;;;;;;;21.07;100.00;100615.59;2072299;28;20249;-66
2022/08/15 02:14:38;;;;;;;26.27;18.20;;;;;;;21.09;100.00;100618.66;2065053;28;20920;-66
2022/08/15 02:15:39;;;;;;;19.87;17.87;;;;;;;21.02;100.00;100607.88;2071406;28;20205;-66
2022/08/15 02:16:41;;;;;;;19.60;17.70;;;;;;;20.70;100.00;100569.78;2065821;28;20452;-65
2022/08/15 02:17:43;;;;;;;20.17;18.13;;;;;;;21.13;100.00;100624.09;2064264;28;20657;-66
2022/08/15 02:18:44;;;;;;;21.00;18.00;;;;;;;21.08;100.00;100627.66;2069891;28;20444;-66
2022/08/15 02:19:48;;;;;;;20.40;18.40;;;;;;;21.09;100.00;100629.19;2068924;28;20744;-65
2022/08/15 02:20:48;;;;;;;21.57;18.27;;;;;;;21.11;100.00;100626.63;2067995;28;20204;-66
2022/08/15 02:21:49;;;;;;;22.57;18.50;;;;;;;21.11;100.00;100632.25;2070596;28;20456;-66
2022/08/15 02:22:49;;;;;;;20.03;18.03;;;;;;;20.50;100.00;100538.16;2064627;28;20167;-66
2022/08/15 02:23:50;;;;;;;18.67;16.63;;;;;;;21.06;100.00;100621.72;2064831;28;20730;-66
2022/08/15 02:24:50;;;;;;;19.80;17.77;;;;;;;21.11;100.00;100630.22;2064272;28;20268;-66
2022/08/15 02:25:53;;;;;;;20.23;18.23;;;;;;;21.12;100.00;100622.53;2070949;28;20193;-66
2022/08/15 02:26:55;;;;;;;19.43;17.53;;;;;;;21.08;100.00;100622.78;2066710;28;20202;-66
2022/08/15 02:27:55;;;;;;;20.30;18.13;;;;;;;21.15;100.00;100632.81;2065668;28;20433;-66
2022/08/15 02:28:56;;;;;;;20.80;18.60;;;;;;;21.14;100.00;100629.19;2072556;28;20440;-66
2022/08/15 02:29:57;;;;;;;23.60;18.30;;;;;;;21.16;100.00;100628.69;2072823;28;20185;-66
2022/08/15 02:30:58;;;;;;;21.20;19.10;;;;;;;21.17;100.00;100627.41;2070665;28;20564;-66
2022/08/15 02:32:05;;;;;;;25.20;18.93;;;;;;;20.88;100.00;100586.25;2065578;28;20504;-65
2022/08/15 02:33:06;;;;;;;21.10;18.77;;;;;;;21.16;100.00;100625.88;2071977;28;20663;-66
2022/08/15 02:34:07;;;;;;;20.40;18.50;;;;;;;21.11;100.00;100621.78;2067886;28;20897;-66
2022/08/15 02:35:09;;;;;;;22.00;19.90;;;;;;;21.14;100.00;100628.44;2072196;28;20575;-66
2022/08/15 02:36:10;;;;;;;21.10;18.87;;;;;;;20.75;100.00;100566.22;2069163;28;20531;-66
2022/08/15 02:37:14;;;;;;;20.67;18.67;;;;;;;20.98;100.00;100610.16;2066641;28;20951;-67
2022/08/15 02:38:14;;;;;;;19.63;17.90;;;;;;;20.99;100.00;100602.50;2064570;28;20278;-66
2022/08/15 02:39:15;;;;;;;20.27;18.47;;;;;;;21.19;100.00;100628.47;2064328;28;20456;-66
2022/08/15 02:40:16;;;;;;;23.87;18.60;;;;;;;21.08;100.00;100605.88;2068611;28;20197;-66
2022/08/15 02:41:30;;;;;;;21.00;18.83;;;;;;;21.19;100.00;100625.63;2070801;28;20264;-65
2022/08/15 02:42:31;;;;;;;20.07;18.27;;;;;;;21.18;100.00;100620.53;2064744;28;20207;-66
2022/08/15 02:43:31;;;;;;;19.67;17.87;;;;;;;21.11;100.00;100607.69;2065933;28;20445;-66
2022/08/15 02:44:32;;;;;;;19.57;17.87;;;;;;;20.93;100.00;100579.91;2072772;28;20177;-66
2022/08/15 02:45:37;;;;;;;19.57;17.77;;;;;;;20.57;100.00;100518.75;2072083;28;20170;-66
2022/08/15 02:46:39;;;;;;;19.23;17.43;;;;;;;21.21;100.00;100613.88;2072411;28;20647;-66
2022/08/15 02:47:43;;;;;;;19.83;18.13;;;;;;;21.19;100.00;100605.91;2063785;28;20520;-66
2022/08/15 02:48:46;;;;;;;20.73;18.60;;;;;;;21.21;100.00;100606.19;2049371;28;20830;-66
2022/08/15 02:49:47;;;;;;;20.20;18.10;;;;;;;21.30;100.00;100617.25;2056021;28;20434;-66
2022/08/15 02:50:49;;;;;;;20.73;18.73;;;;;;;20.96;100.00;100564.84;2064448;28;20490;-66
2022/08/15 02:51:51;;;;;;;19.63;17.87;;;;;;;21.37;100.00;100615.97;2059428;28;20418;-66
2022/08/15 02:52:51;;;;;;;19.57;17.60;;;;;;;21.35;100.00;100618.56;2063899;28;20460;-66
2022/08/15 02:53:54;;;;;;;19.53;17.67;;;;;;;20.87;100.00;100553.00;2064509;28;20410;-66
2022/08/15 02:54:55;;;;;;;20.87;18.17;;;;;;;20.98;100.00;100558.69;2055983;28;20257;-66
2022/08/15 02:55:57;;;;;;;19.53;17.53;;;;;;;21.36;100.00;100620.88;2063541;28;20457;-65
2022/08/15 02:56:57;;;;;;;20.40;18.47;;;;;;;21.40;100.00;100618.56;2072837;28;20478;-66
2022/08/15 02:57:58;;;;;;;22.63;17.30;;;;;;;21.42;100.00;100618.06;2056959;28;20222;-67
2022/08/15 02:58:58;;;;;;;21.40;19.03;;;;;;;21.12;100.00;100585.91;2055610;28;20659;-66
2022/08/15 02:59:59;;;;;;;21.73;18.37;;;;;;;21.32;100.00;100609.06;2069337;28;20193;-66
2022/08/15 03:01:02;;;;;;;20.63;18.17;;;;;;;21.18;100.00;100593.09;2068866;28;20221;-67
2022/08/15 03:02:03;;;;;;;21.40;18.20;;;;;;;21.35;100.00;100615.72;2064613;28;20201;-66
2022/08/15 03:03:07;;;;;;;21.27;19.07;;;;;;;21.39;100.00;100631.13;2064353;28;20923;-66
2022/08/15 03:04:14;;;;;;;21.37;17.17;;;;;;;21.39;100.00;100624.72;2066099;28;20182;-66
2022/08/15 03:05:16;;;;;;;19.33;17.23;;;;;;;21.35;100.00;100619.31;2064014;28;20424;-65
2022/08/15 03:06:25;;;;;;;19.47;17.50;;;;;;;21.37;100.00;100632.91;2064867;28;20642;-66
2022/08/15 03:07:26;;;;;;;20.80;17.60;;;;;;;21.35;100.00;100627.00;2074025;28;20424;-65
2022/08/15 03:08:27;;;;;;;20.90;16.37;;;;;;;21.34;100.00;100637.50;2066489;28;20417;-66
2022/08/15 03:09:27;;;;;;;24.07;17.23;;;;;;;21.29;100.00;100634.66;2064143;28;20198;-65
2022/08/15 03:10:28;;;;;;;25.20;16.37;;;;;;;21.20;100.00;100632.06;2059525;28;20223;-66
2022/08/15 03:11:29;;;;;;;34.57;16.73;;;;;;;20.88;100.00;100585.50;2066259;28;20236;-66
2022/08/15 03:12:30;;;;;;;21.87;15.63;;;;;;;21.14;100.00;100632.03;2070243;28;20181;-66
2022/08/15 03:13:31;;;;;;;22.30;16.07;;;;;;;21.06;100.00;100628.16;2065308;28;20496;-66
2022/08/15 03:14:32;;;;;;;21.37;16.53;;;;;;;20.64;100.00;100571.03;2065610;28;20174;-67
2022/08/15 03:15:44;;;;;;;21.70;16.23;;;;;;;20.57;100.00;100569.44;2073184;28;20470;-66
2022/08/15 03:16:46;;;;;;;26.07;16.97;;;;;;;20.97;100.00;100636.03;2073942;28;20945;-67
2022/08/15 03:17:47;;;;;;;19.47;16.87;;;;;;;20.94;100.00;100637.03;2073920;28;20417;-66
2022/08/15 03:18:49;;;;;;;23.93;17.27;;;;;;;20.60;100.00;100584.56;2074507;28;20441;-66
2022/08/15 03:19:49;;;;;;;24.47;17.57;;;;;;;20.87;100.00;100626.22;2066283;28;20213;-66
2022/08/15 03:20:51;;;;;;;19.27;17.10;;;;;;;20.86;100.00;100624.66;2072439;28;20440;-66
2022/08/15 03:21:53;;;;;;;21.67;18.07;;;;;;;20.32;100.00;100553.41;2068725;28;20558;-66
2022/08/15 03:22:53;;;;;;;19.63;17.57;;;;;;;20.48;100.00;100572.47;2065992;28;20445;-66
2022/08/15 03:23:54;;;;;;;19.80;17.77;;;;;;;20.90;100.00;100636.50;2066056;28;21010;-66
2022/08/15 03:24:55;;;;;;;22.93;18.03;;;;;;;20.74;100.00;100621.03;2059103;28;20175;-65
2022/08/15 03:25:59;;;;;;;19.70;17.77;;;;;;;20.88;100.00;100641.84;2064999;28;20170;-67
2022/08/15 03:27:00;;;;;;;21.23;18.40;;;;;;;20.16;100.00;100520.28;2073978;28;20232;-66
2022/08/15 03:28:00;;;;;;;24.10;18.93;;;;;;;20.41;100.00;100556.03;2065165;28;20433;-66
2022/08/15 03:29:03;;;;;;;24.27;18.33;;;;;;;20.87;100.00;100635.44;2065096;28;20197;-66
2022/08/15 03:30:07;;;;;;;27.47;18.87;;;;;;;20.88;100.00;100636.97;2056633;28;20299;-66
2022/08/15 03:31:08;;;;;;;26.40;18.70;;;;;;;20.29;100.00;100537.53;2057619;28;20908;-66
2022/08/15 03:32:12;;;;;;;22.40;17.70;;;;;;;20.88;100.00;100631.31;2071389;28;20432;-67
2022/08/15 03:33:13;;;;;;;24.23;18.73;;;;;;;20.85;100.00;100623.91;2074057;28;20448;-65
2022/08/15 03:34:16;;;;;;;23.37;18.47;;;;;;;20.89;100.00;100624.47;2073911;28;20451;-66
2022/08/15 03:35:19;;;;;;;24.77;18.17;;;;;;;20.88;100.00;100622.13;2070533;28;20202;-66
2022/08/15 03:36:22;;;;;;;20.40;17.60;;;;;;;20.87;100.00;100624.16;2070583;28;20420;-66
2022/08/15 03:37:22;;;;;;;25.57;18.67;;;;;;;20.87;100.00;100634.69;2072547;28;20425;-65
2022/08/15 03:38:25;;;;;;;20.97;18.83;;;;;;;20.85;100.00;100635.16;2066161;28;20402;-65
2022/08/15 03:39:26;;;;;;;20.30;18.30;;;;;;;19.99;100.00;100508.09;2074272;28;20424;-66
2022/08/15 03:40:28;;;;;;;25.57;19.07;;;;;;;20.82;100.00;100635.41;2071624;28;20966;-66
2022/08/15 03:41:28;;;;;;;30.67;19.37;;;;;;;20.25;100.00;100573.56;2074140;28;20679;-66
2022/08/15 03:42:29;;;;;;;25.77;19.47;;;;;;;20.68;100.00;100630.69;2068467;28;20464;-65
2022/08/15 03:43:30;;;;;;;25.10;18.83;;;;;;;20.71;100.00;100638.91;2069982;28;20204;-66
2022/08/15 03:44:30;;;;;;;29.73;19.33;;;;;;;20.32;100.00;100583.59;2070551;28;20200;-66
2022/08/15 03:45:31;;;;;;;22.20;19.13;;;;;;;20.30;100.00;100575.66;2067066;28;20416;-66
2022/08/15 03:46:32;;;;;;;28.23;18.50;;;;;;;20.76;100.00;100640.22;2072188;28;20561;-66
2022/08/15 03:47:33;;;;;;;23.40;18.80;;;;;;;20.74;100.00;100646.38;2065754;28;20449;-66
2022/08/15 03:48:40;;;;;;;23.37;18.67;;;;;;;20.74;100.00;100646.38;2065826;28;20201;-66
2022/08/15 03:49:40;;;;;;;25.37;18.23;;;;;;;20.74;100.00;100648.41;2065637;28;20444;-66
2022/08/15 03:50:42;;;;;;;24.53;18.57;;;;;;;20.20;100.00;100571.47;2063233;28;20449;-66
2022/08/15 03:51:42;;;;;;;21.90;18.13;;;;;;;20.74;100.00;100643.53;2057059;28;20303;-66
2022/08/15 03:52:58;;;;;;;25.97;18.60;;;;;;;20.76;100.00;100645.84;2064846;28;20495;-66
2022/08/15 03:54:00;;;;;;;23.77;18.10;;;;;;;20.78;100.00;100648.94;2066067;28;20553;-66
2022/08/15 03:55:04;;;;;;;22.13;18.13;;;;;;;20.73;100.00;100644.78;2070162;28;20914;-66
2022/08/15 03:56:06;;;;;;;21.80;19.00;;;;;;;20.67;100.00;100648.88;2060234;28;20493;-66
2022/08/15 03:57:07;;;;;;;21.97;18.73;;;;;;;20.22;100.00;100580.19;2057372;28;20446;-66
2022/08/15 03:58:08;;;;;;;23.20;18.57;;;;;;;20.67;100.00;100646.06;2065525;28;20463;-66
2022/08/15 03:59:09;;;;;;;20.97;18.40;;;;;;;20.19;100.00;100569.16;2065745;28;20513;-66
2022/08/15 04:00:11;;;;;;;19.37;17.40;;;;;;;20.69;100.00;100647.09;2066041;28;20427;-66
2022/08/15 04:01:18;;;;;;;20.50;17.03;;;;;;;20.70;100.00;100637.38;2059684;28;20187;-66
2022/08/15 04:02:24;;;;;;;21.00;18.87;;;;;;;20.52;100.00;100622.91;2066198;28;21031;-67
2022/08/15 04:03:28;;;;;;;18.77;16.80;;;;;;;20.72;100.00;100643.25;2066117;28;20456;-66
2022/08/15 04:04:29;;;;;;;19.30;17.30;;;;;;;20.41;100.00;100591.88;2071669;28;20945;-67
2022/08/15 04:05:30;;;;;;;22.97;18.10;;;;;;;20.76;100.00;100645.84;2073235;28;20922;-66
2022/08/15 04:06:30;;;;;;;19.87;17.73;;;;;;;20.07;100.00;100542.19;2068649;28;20190;-67
2022/08/15 04:07:33;;;;;;;21.00;18.10;;;;;;;20.71;100.00;100641.72;2065682;28;20674;-65
2022/08/15 04:08:34;;;;;;;21.47;18.73;;;;;;;20.75;100.00;100641.47;2071699;28;20181;-66
2022/08/15 04:09:34;;;;;;;24.33;19.30;;;;;;;20.52;100.00;100606.75;2069191;28;20900;-66
2022/08/15 04:10:36;;;;;;;20.63;18.60;;;;;;;20.81;100.00;100647.91;2057152;28;20191;-67
2022/08/15 04:11:37;;;;;;;20.33;18.13;;;;;;;20.74;100.00;100648.41;2056841;28;20661;-65
2022/08/15 04:12:40;;;;;;;19.33;17.37;;;;;;;20.73;100.00;100646.88;2057462;28;20406;-66
2022/08/15 04:13:42;;;;;;;19.57;17.60;;;;;;;20.70;100.00;100642.22;2065635;28;20182;-66
2022/08/15 04:14:42;;;;;;;22.73;18.27;;;;;;;20.17;100.00;100561.22;2072186;28;20436;-66
2022/08/15 04:15:42;;;;;;;20.27;18.40;;;;;;;20.81;100.00;100645.88;2058729;28;21026;-65
2022/08/15 04:16:44;;;;;;;20.03;17.93;;;;;;;20.86;100.00;100645.16;2064419;28;20196;-66
2022/08/15 04:17:44;;;;;;;20.97;18.87;;;;;;;20.67;100.00;100609.44;2069480;28;20245;-66
2022/08/15 04:18:45;;;;;;;18.73;16.70;;;;;;;20.86;100.00;100639.53;2067618;28;20500;-66
2022/08/15 04:19:45;;;;;;;19.97;18.07;;;;;;;20.85;100.00;100642.84;2072727;28;20235;-65
2022/08/15 04:20:47;;;;;;;20.17;18.07;;;;;;;20.83;100.00;100636.94;2065921;28;20192;-65
2022/08/15 04:21:48;;;;;;;20.23;18.23;;;;;;;20.92;100.00;100651.63;2073312;28;20181;-66
2022/08/15 04:22:50;;;;;;;19.20;16.77;;;;;;;20.95;100.00;100647.03;2073616;28;21069;-66
2022/08/15 04:23:50;;;;;;;20.00;17.93;;;;;;;20.44;100.00;100571.13;2073570;28;20467;-65
2022/08/15 04:24:51;;;;;;;21.53;18.27;;;;;;;20.96;100.00;100638.09;2068456;28;20438;-66
2022/08/15 04:25:51;;;;;;;20.50;18.47;;;;;;;20.99;100.00;100645.50;2059861;28;20191;-66
2022/08/15 04:26:52;;;;;;;20.27;18.30;;;;;;;20.80;100.00;100616.19;2062468;28;20193;-66
2022/08/15 04:27:56;;;;;;;20.63;18.63;;;;;;;21.04;100.00;100649.66;2076764;28;20524;-64
2022/08/15 04:28:57;;;;;;;20.37;17.97;;;;;;;20.98;100.00;100640.41;2069536;28;20181;-64
2022/08/15 04:29:57;;;;;;;19.03;17.23;;;;;;;21.07;100.00;100649.41;2067773;28;20460;-64
2022/08/15 04:31:02;;;;;;;18.73;16.83;;;;;;;21.07;100.00;100652.22;2077268;28;20242;-64
2022/08/15 04:32:03;;;;;;;19.63;17.63;;;;;;;21.11;100.00;100652.78;2070947;28;20256;-64
2022/08/15 04:33:25;;;;;;;21.23;19.03;;;;;;;20.89;100.00;100620.84;2063144;28;20445;-64
2022/08/15 04:34:26;;;;;;;19.70;17.87;;;;;;;21.13;100.00;100658.66;2061069;28;20316;-64
2022/08/15 04:35:26;;;;;;;20.67;18.53;;;;;;;21.16;100.00;100651.25;2063720;28;20495;-65
2022/08/15 04:36:28;;;;;;;18.77;16.87;;;;;;;21.02;100.00;100644.50;2073928;28;20216;-64
2022/08/15 04:37:29;;;;;;;18.80;16.90;;;;;;;20.77;100.00;100589.03;2073996;28;20220;-65
2022/08/15 04:38:32;;;;;;;19.40;17.33;;;;;;;21.23;100.00;100651.53;2055289;28;20893;-64
2022/08/15 04:39:32;;;;;;;21.17;18.30;;;;;;;21.23;100.00;100651.53;2052890;28;20183;-64
2022/08/15 04:40:34;;;;;;;23.33;17.90;;;;;;;21.28;100.00;100658.50;2055011;28;20419;-64
2022/08/15 04:41:34;;;;;;;27.57;17.73;;;;;;;20.98;100.00;100603.78;2068540;28;20177;-64
2022/08/15 04:42:46;;;;;;;27.03;17.73;;;;;;;21.25;100.00;100649.00;2068778;28;20417;-64
2022/08/15 04:43:47;;;;;;;29.83;18.07;;;;;;;21.37;100.00;100647.78;2062310;28;20656;-65
2022/08/15 04:44:48;;;;;;;25.37;16.90;;;;;;;21.37;100.00;100656.22;2065370;28;20425;-64
2022/08/15 04:45:50;;;;;;;19.87;16.33;;;;;;;21.36;100.00;100663.16;2064156;28;20528;-65
2022/08/15 04:46:51;;;;;;;27.37;17.27;;;;;;;21.37;100.00;100647.00;2064328;28;20432;-64
2022/08/15 04:47:52;;;;;;;23.90;17.53;;;;;;;20.88;100.00;100571.44;2068779;28;20448;-64